Time;durP1;ratioP1;P1;durP2;ratioP2;P2;SDS_P1;SDS_P2;PMS_P1;PMS_P2;Temp;Humidity;BMP_temperature;BMP_pressure;BME280_temperature;BME280_humidity;BME280_pressure;Samples;Min_cycle;Max_cycle;Signal;HPM_P1;HPM_P2
2022/09/24 00:01:34;;;;;;;4.33;1.43;;;19.50;76.10;;;;;;5033837;28;20237;-69
2022/09/24 00:04:04;;;;;;;5.33;1.70;;;19.70;75.10;;;;;;5033864;28;20222;-69
2022/09/24 00:06:36;;;;;;;5.97;1.43;;;19.30;75.00;;;;;;5033283;28;20793;-68
2022/09/24 00:09:05;;;;;;;6.67;1.50;;;18.80;76.50;;;;;;5032732;28;20611;-69
2022/09/24 00:11:32;;;;;;;3.53;1.20;;;18.70;77.00;;;;;;5033155;28;20177;-69
2022/09/24 00:14:00;;;;;;;4.60;1.43;;;18.50;76.50;;;;;;5034047;28;20176;-71
2022/09/24 00:16:32;;;;;;;2.50;1.00;;;18.30;77.50;;;;;;5034750;28;20234;-71
2022/09/24 00:19:01;;;;;;;5.07;2.13;;;18.10;78.00;;;;;;5034741;28;20215;-70
2022/09/24 00:21:31;;;;;;;3.73;1.40;;;18.10;78.70;;;;;;5034158;28;20611;-71
2022/09/24 00:24:07;;;;;;;5.80;1.10;;;18.30;78.20;;;;;;5032821;28;20255;-70
2022/09/24 00:26:50;;;;;;;2.83;1.33;;;18.70;76.80;;;;;;5033233;28;20246;-70
2022/09/24 00:29:23;;;;;;;4.07;1.20;;;19.00;75.50;;;;;;5016870;28;21250;-68
2022/09/24 00:31:52;;;;;;;3.90;1.10;;;19.30;74.50;;;;;;5039346;28;20547;-69
2022/09/24 00:34:20;;;;;;;5.70;1.30;;;19.50;72.40;;;;;;5041622;28;20185;-68
2022/09/24 00:36:48;;;;;;;3.77;1.50;;;19.60;72.70;;;;;;5031976;28;20284;-72
2022/09/24 00:39:15;;;;;;;4.30;1.20;;;20.00;72.50;;;;;;5033931;28;20575;-69
2022/09/24 00:41:45;;;;;;;8.97;1.20;;;20.00;70.70;;;;;;5027509;28;20188;-70
2022/09/24 00:44:40;;;;;;;5.83;1.27;;;19.90;71.60;;;;;;5019885;28;20184;-69
2022/09/24 00:47:38;;;;;;;4.93;1.40;;;19.90;71.30;;;;;;5030792;28;20599;-71
2022/09/24 00:50:14;;;;;;;2.87;1.40;;;19.90;71.70;;;;;;5031706;28;20212;-70
2022/09/24 00:52:46;;;;;;;6.07;1.83;;;19.60;71.70;;;;;;5030505;28;20584;-71
2022/09/24 00:55:14;;;;;;;3.57;1.53;;;19.70;72.20;;;;;;5032184;28;20199;-69
2022/09/24 00:57:43;;;;;;;9.30;1.80;;;19.70;71.60;;;;;;5031202;28;20647;-69
2022/09/24 01:00:11;;;;;;;4.60;1.37;;;19.50;71.30;;;;;;5032058;28;20179;-72
2022/09/24 01:02:41;;;;;;;5.10;1.70;;;19.80;71.70;;;;;;5031362;28;20188;-68
2022/09/24 01:05:09;;;;;;;3.10;1.23;;;20.00;70.90;;;;;;5032134;28;20177;-68
2022/09/24 01:07:36;;;;;;;5.07;1.40;;;20.00;69.80;;;;;;5021841;28;20312;-69
2022/09/24 01:10:05;;;;;;;5.73;1.30;;;20.20;68.20;;;;;;5031927;28;20188;-70
2022/09/24 01:12:58;;;;;;;8.33;1.37;;;20.20;68.50;;;;;;5031228;28;20188;-70
2022/09/24 01:15:36;;;;;;;4.20;1.20;;;20.10;68.60;;;;;;5044254;28;20208;-70
2022/09/24 01:18:20;;;;;;;3.73;1.00;;;20.60;67.00;;;;;;5032498;28;20298;-71
2022/09/24 01:20:59;;;;;;;5.87;2.10;;;20.40;66.80;;;;;;5029652;28;20211;-70
2022/09/24 01:23:36;;;;;;;5.10;1.10;;;20.30;65.90;;;;;;5032243;28;20593;-69
2022/09/24 01:26:18;;;;;;;2.97;1.17;;;20.50;64.80;;;;;;5032152;28;20545;-69
2022/09/24 01:29:15;;;;;;;4.47;0.80;;;20.30;63.70;;;;;;5032022;28;20184;-70
2022/09/24 01:31:50;;;;;;;4.03;0.90;;;20.30;63.70;;;;;;5018522;28;20642;-70
2022/09/24 01:34:22;;;;;;;4.60;0.70;;;19.80;65.50;;;;;;5031019;28;20185;-70
2022/09/24 01:36:51;;;;;;;1.73;0.73;;;19.50;65.60;;;;;;5031246;28;20369;-69
2022/09/24 01:39:19;;;;;;;1.17;0.67;;;19.20;65.90;;;;;;5032488;28;20572;-71
2022/09/24 01:41:48;;;;;;;1.17;0.67;;;19.30;65.20;;;;;;5032327;28;20672;-69
2022/09/24 01:44:17;;;;;;;1.63;0.77;;;19.80;64.00;;;;;;5031959;28;20692;-69
2022/09/24 01:46:44;;;;;;;2.43;0.70;;;20.30;63.10;;;;;;5028007;28;20198;-70
2022/09/24 01:49:12;;;;;;;4.70;0.90;;;20.70;62.00;;;;;;5028082;28;20272;-69
2022/09/24 01:51:49;;;;;;;3.10;1.30;;;20.30;62.60;;;;;;5030260;28;20200;-69
2022/09/24 01:54:34;;;;;;;5.60;0.90;;;20.20;63.10;;;;;;5028084;28;20710;-69
2022/09/24 01:57:15;;;;;;;2.10;0.80;;;20.40;64.30;;;;;;5031693;28;20208;-68
2022/09/24 01:59:49;;;;;;;3.10;0.90;;;20.50;63.40;;;;;;5036660;28;20176;-70
2022/09/24 02:02:44;;;;;;;2.73;1.13;;;20.30;63.90;;;;;;5032077;28;20188;-70
2022/09/24 02:05:21;;;;;;;8.97;1.13;;;19.70;65.80;;;;;;5033069;28;20201;-70
2022/09/24 02:08:04;;;;;;;3.93;1.10;;;19.10;68.10;;;;;;5027387;28;20558;-70
2022/09/24 02:10:47;;;;;;;3.80;1.00;;;19.10;68.90;;;;;;5032177;28;20180;-70
2022/09/24 02:13:16;;;;;;;5.53;1.20;;;18.90;68.60;;;;;;5032995;28;20659;-68
2022/09/24 02:15:49;;;;;;;3.67;1.20;;;18.80;69.40;;;;;;5035981;28;20209;-70
2022/09/24 02:18:21;;;;;;;3.70;1.10;;;18.80;70.00;;;;;;5036161;28;20271;-69
2022/09/24 02:20:50;;;;;;;2.63;1.00;;;18.50;71.80;;;;;;5046274;28;20180;-68
2022/09/24 02:23:19;;;;;;;2.70;1.00;;;18.50;71.10;;;;;;5039736;28;20188;-70
2022/09/24 02:25:58;;;;;;;3.77;1.23;;;18.20;71.00;;;;;;5032788;28;20181;-68
2022/09/24 02:28:26;;;;;;;2.50;0.90;;;18.00;71.40;;;;;;5035011;28;20180;-71
2022/09/24 02:31:21;;;;;;;1.73;1.00;;;17.90;71.90;;;;;;5035007;28;20200;-67
2022/09/24 02:36:38;;;;;;;2.30;0.90;;;17.80;70.30;;;;;;5035358;28;20210;-70
2022/09/24 02:39:05;;;;;;;3.93;1.40;;;17.90;71.00;;;;;;5035573;28;20181;-71
2022/09/24 02:41:33;;;;;;;3.07;1.10;;;17.90;71.00;;;;;;5023190;28;20188;-69
2022/09/24 02:44:01;;;;;;;4.40;0.90;;;17.80;70.70;;;;;;5035509;28;20559;-70
2022/09/24 02:46:28;;;;;;;5.30;0.93;;;17.80;70.20;;;;;;5035453;28;20194;-69
2022/09/24 02:48:56;;;;;;;1.97;1.10;;;17.80;71.00;;;;;;5039871;28;20194;-68
2022/09/24 02:51:24;;;;;;;4.13;0.90;;;17.80;70.60;;;;;;5023602;28;20267;-70
2022/09/24 02:53:51;;;;;;;5.87;1.13;;;17.90;71.10;;;;;;5035412;28;20174;-72
2022/09/24 02:56:19;;;;;;;3.77;1.10;;;18.00;71.00;;;;;;5034102;28;20274;-71
2022/09/24 02:58:46;;;;;;;5.00;2.30;;;18.00;70.90;;;;;;5031778;28;20641;-70
2022/09/24 03:01:13;;;;;;;4.43;1.10;;;17.90;70.60;;;;;;5034997;28;20242;-69
2022/09/24 03:03:41;;;;;;;4.00;1.30;;;17.80;70.60;;;;;;5034553;28;20183;-70
2022/09/24 03:06:09;;;;;;;4.50;1.30;;;17.70;70.90;;;;;;5034128;28;20195;-71
2022/09/24 03:08:36;;;;;;;3.63;1.20;;;17.60;70.90;;;;;;5032754;28;20184;-70
2022/09/24 03:11:04;;;;;;;2.77;1.10;;;17.60;71.60;;;;;;5034085;28;20177;-69
2022/09/24 03:13:31;;;;;;;4.43;1.00;;;17.60;71.20;;;;;;5017169;28;20555;-71
2022/09/24 03:15:59;;;;;;;3.93;1.47;;;17.60;71.60;;;;;;5031311;28;20171;-74
2022/09/24 03:18:26;;;;;;;6.83;0.97;;;17.60;71.20;;;;;;5034626;28;20191;-71
2022/09/24 03:21:07;;;;;;;3.70;1.20;;;17.50;71.20;;;;;;5026671;28;20200;-72
2022/09/24 03:23:36;;;;;;;2.33;1.10;;;17.50;71.60;;;;;;5031376;28;20199;-70
2022/09/24 03:26:03;;;;;;;5.90;1.40;;;17.50;71.60;;;;;;5034946;28;20196;-68
2022/09/24 03:28:31;;;;;;;4.20;1.37;;;17.50;71.00;;;;;;5034236;28;20227;-69
2022/09/24 03:30:58;;;;;;;3.90;1.50;;;17.50;71.20;;;;;;5035459;28;20194;-71
2022/09/24 03:33:42;;;;;;;7.77;2.13;;;17.50;70.60;;;;;;5034585;28;20653;-71
2022/09/24 03:36:12;;;;;;;7.10;5.13;;;17.50;70.60;;;;;;5031487;28;20304;-69
2022/09/24 03:38:42;;;;;;;5.40;1.70;;;17.80;70.80;;;;;;5041117;28;20714;-73
2022/09/24 03:41:11;;;;;;;3.77;1.30;;;17.90;70.50;;;;;;5039755;28;20181;-71
2022/09/24 03:43:38;;;;;;;4.73;2.10;;;17.80;69.80;;;;;;5023997;28;20192;-68
2022/09/24 03:46:07;;;;;;;5.67;1.77;;;17.70;69.40;;;;;;5033966;28;20314;-71
2022/09/24 03:48:36;;;;;;;9.73;1.80;;;17.70;70.10;;;;;;5032459;28;20182;-68
2022/09/24 03:51:15;;;;;;;3.80;1.43;;;17.80;70.80;;;;;;5031157;28;20187;-69
2022/09/24 03:53:42;;;;;;;6.53;1.33;;;17.80;71.70;;;;;;5031688;28;20341;-68
2022/09/24 03:56:10;;;;;;;2.27;1.23;;;17.80;71.90;;;;;;5033952;28;20188;-69
2022/09/24 03:58:38;;;;;;;6.50;1.30;;;17.80;71.70;;;;;;5033131;28;20196;-69
2022/09/24 04:01:08;;;;;;;6.53;1.40;;;17.80;72.30;;;;;;5033059;28;20192;-70
2022/09/24 04:03:36;;;;;;;6.70;1.43;;;17.50;71.60;;;;;;5033274;28;20195;-69
2022/09/24 04:06:04;;;;;;;3.67;1.50;;;17.50;71.90;;;;;;5033714;28;20199;-68
2022/09/24 04:08:32;;;;;;;6.00;1.30;;;17.40;72.30;;;;;;5032149;28;20242;-70
2022/09/24 04:10:59;;;;;;;7.03;1.40;;;17.30;72.80;;;;;;5033420;28;20175;-70
2022/09/24 04:13:27;;;;;;;3.00;1.20;;;17.40;75.50;;;;;;5033688;28;20181;-69
2022/09/24 04:15:54;;;;;;;5.83;1.70;;;17.30;76.40;;;;;;5033337;28;20184;-71
2022/09/24 04:18:22;;;;;;;7.00;1.40;;;17.10;77.70;;;;;;5032639;28;20204;-69
2022/09/24 04:20:49;;;;;;;9.67;1.83;;;17.00;79.90;;;;;;5032887;28;20561;-68
2022/09/24 04:23:17;;;;;;;4.67;1.40;;;17.00;81.30;;;;;;5033506;28;20194;-70
2022/09/24 04:25:44;;;;;;;5.50;1.60;;;17.00;81.20;;;;;;5033370;28;20183;-68
2022/09/24 04:28:14;;;;;;;7.07;3.43;;;16.90;81.60;;;;;;5032817;28;20187;-68
2022/09/24 04:30:42;;;;;;;8.73;4.53;;;17.10;82.00;;;;;;5019900;28;20187;-68
2022/09/24 04:33:09;;;;;;;6.77;4.20;;;17.20;81.80;;;;;;5030436;28;20263;-68
2022/09/24 04:35:37;;;;;;;6.80;2.50;;;17.40;81.20;;;;;;5033228;28;20205;-68
2022/09/24 04:38:05;;;;;;;4.70;1.40;;;17.30;80.40;;;;;;5033502;28;20219;-69
2022/09/24 04:40:32;;;;;;;4.10;1.60;;;17.30;79.50;;;;;;5033335;28;20237;-67
2022/09/24 04:43:12;;;;;;;7.30;1.47;;;17.30;79.50;;;;;;5083809;27;20597;-70
2022/09/24 04:45:42;;;;;;;4.13;1.60;;;17.50;79.40;;;;;;5070071;28;20208;-68
2022/09/24 04:48:10;;;;;;;8.77;2.00;;;17.60;79.00;;;;;;5069648;28;20186;-69
2022/09/24 04:50:38;;;;;;;5.90;1.93;;;17.60;78.80;;;;;;5069385;28;20170;-68
2022/09/24 04:53:06;;;;;;;5.03;1.70;;;17.80;77.80;;;;;;5063885;28;20256;-67
2022/09/24 04:55:34;;;;;;;4.13;1.57;;;17.80;76.60;;;;;;5068646;28;20625;-67
2022/09/24 04:58:01;;;;;;;6.37;1.40;;;18.00;76.70;;;;;;5064573;28;20185;-67
2022/09/24 05:00:32;;;;;;;5.53;1.40;;;18.00;75.60;;;;;;5069571;28;20210;-67
2022/09/24 05:03:03;;;;;;;7.27;1.63;;;18.40;74.40;;;;;;5069438;28;20289;-67
2022/09/24 05:05:32;;;;;;;4.07;1.40;;;18.70;73.40;;;;;;5069949;28;20541;-67
2022/09/24 05:08:01;;;;;;;7.43;1.87;;;19.10;72.70;;;;;;5069296;28;20183;-68
2022/09/24 05:10:33;;;;;;;13.43;6.67;;;19.60;69.70;;;;;;5060044;28;20184;-68
2022/09/24 05:13:01;;;;;;;5.17;2.47;;;19.60;70.20;;;;;;5052611;28;20172;-67
2022/09/24 05:15:28;;;;;;;5.20;1.77;;;19.40;70.40;;;;;;5069209;28;20182;-67
2022/09/24 05:17:56;;;;;;;3.57;1.33;;;19.20;69.30;;;;;;5068111;28;20194;-68
2022/09/24 05:20:25;;;;;;;4.20;1.60;;;18.80;70.60;;;;;;5069708;28;20642;-72
2022/09/24 05:22:53;;;;;;;6.20;1.40;;;19.00;71.50;;;;;;5068923;28;20218;-68
2022/09/24 05:25:22;;;;;;;3.33;1.67;;;18.80;70.90;;;;;;5059034;28;20227;-70
2022/09/24 05:27:54;;;;;;;3.13;1.40;;;18.60;71.10;;;;;;5060745;28;20176;-69
2022/09/24 05:30:24;;;;;;;6.83;1.60;;;18.50;71.80;;;;;;5073837;28;20182;-68
2022/09/24 05:32:52;;;;;;;5.23;1.80;;;18.60;71.30;;;;;;5068579;28;20266;-68
2022/09/24 05:35:23;;;;;;;3.13;1.57;;;18.70;71.00;;;;;;5068754;28;20662;-68
2022/09/24 05:37:52;;;;;;;4.97;1.60;;;18.50;72.20;;;;;;5068550;28;20167;-68
2022/09/24 05:43:05;;;;;;;3.37;1.50;;;18.50;69.30;;;;;;5063543;28;20240;-68
2022/09/24 05:45:32;;;;;;;6.50;1.70;;;18.40;68.70;;;;;;5060054;28;20194;-68
2022/09/24 05:47:59;;;;;;;6.80;1.90;;;18.30;69.10;;;;;;5065831;28;20595;-69
2022/09/24 05:50:27;;;;;;;3.10;1.73;;;18.30;70.40;;;;;;5063180;28;20186;-67
2022/09/24 05:52:54;;;;;;;5.17;1.43;;;17.90;70.90;;;;;;5063336;28;20318;-67
2022/09/24 05:55:22;;;;;;;2.97;1.40;;;17.70;72.20;;;;;;5053611;28;20201;-68
2022/09/24 05:57:49;;;;;;;4.13;1.30;;;17.50;72.50;;;;;;5055260;28;20316;-68
2022/09/24 06:00:16;;;;;;;5.07;1.50;;;17.40;74.30;;;;;;5054759;28;20176;-68
2022/09/24 06:02:44;;;;;;;3.80;1.70;;;17.50;75.30;;;;;;5048111;28;20222;-69
2022/09/24 06:05:12;;;;;;;6.73;2.27;;;17.30;77.60;;;;;;5051357;28;20184;-67
2022/09/24 06:07:39;;;;;;;8.30;2.00;;;17.50;78.50;;;;;;5054824;28;20185;-67
2022/09/24 06:10:08;;;;;;;4.53;1.93;;;17.70;78.30;;;;;;5055086;28;20183;-67
2022/09/24 06:12:35;;;;;;;8.40;1.90;;;17.90;77.60;;;;;;5054753;28;20178;-68
2022/09/24 06:15:03;;;;;;;6.67;1.93;;;18.10;78.20;;;;;;5054818;28;20237;-68
2022/09/24 06:17:31;;;;;;;7.13;5.00;;;18.40;77.20;;;;;;5052724;28;20529;-69
2022/09/24 06:19:58;;;;;;;6.37;3.53;;;19.40;73.30;;;;;;5047224;28;20180;-69
2022/09/24 06:22:26;;;;;;;3.67;1.60;;;20.80;68.40;;;;;;5048887;28;20216;-68
2022/09/24 06:24:54;;;;;;;6.43;2.00;;;21.50;65.60;;;;;;5054691;28;20179;-69
2022/09/24 06:27:21;;;;;;;6.43;2.10;;;22.30;62.50;;;;;;5054592;28;20264;-68
2022/09/24 06:29:48;;;;;;;4.80;2.00;;;22.80;59.50;;;;;;5053137;28;20175;-68
2022/09/24 06:32:17;;;;;;;4.93;1.60;;;23.10;59.70;;;;;;5054152;28;20622;-70
2022/09/24 06:34:44;;;;;;;4.93;1.90;;;22.80;58.70;;;;;;5064467;28;20195;-69
2022/09/24 06:37:12;;;;;;;6.33;3.50;;;22.80;57.80;;;;;;5051596;28;20237;-71
2022/09/24 06:39:39;;;;;;;6.90;2.80;;;22.50;60.70;;;;;;5069626;28;20683;-70
2022/09/24 06:42:06;;;;;;;6.50;2.30;;;22.40;61.00;;;;;;5049824;28;20237;-69
2022/09/24 06:44:34;;;;;;;12.13;9.40;;;21.40;62.80;;;;;;5052497;28;20630;-70
2022/09/24 06:47:02;;;;;;;9.87;7.23;;;20.40;66.50;;;;;;5052740;28;20586;-69
2022/09/24 06:49:29;;;;;;;8.37;2.43;;;19.60;69.90;;;;;;5053362;28;20331;-69
2022/09/24 06:51:57;;;;;;;6.97;1.90;;;19.20;69.20;;;;;;5051817;28;20325;-68
2022/09/24 06:54:25;;;;;;;5.37;2.23;;;18.70;70.30;;;;;;5054372;28;20164;-70
2022/09/24 06:56:52;;;;;;;6.50;2.10;;;18.30;71.80;;;;;;5053825;28;20206;-68
2022/09/24 06:59:19;;;;;;;6.77;2.70;;;18.10;73.30;;;;;;5048056;28;20172;-68
2022/09/24 07:01:47;;;;;;;6.20;1.80;;;17.80;74.20;;;;;;5034017;28;20667;-68
2022/09/24 07:04:14;;;;;;;5.80;2.30;;;17.50;75.60;;;;;;5047080;28;20183;-68
2022/09/24 07:09:26;;;;;;;5.83;2.20;;;17.40;78.80;;;;;;5044436;28;20208;-70
2022/09/24 07:11:55;;;;;;;4.30;1.80;;;17.30;79.00;;;;;;5049429;28;20191;-70
2022/09/24 07:14:23;;;;;;;6.83;2.40;;;17.20;80.30;;;;;;5047151;28;20195;-67
2022/09/24 07:16:51;;;;;;;10.93;2.63;;;17.20;81.10;;;;;;5050107;28;20261;-68
2022/09/24 07:19:18;;;;;;;10.30;2.93;;;17.10;81.50;;;;;;5044051;28;20180;-68
2022/09/24 07:21:45;;;;;;;12.20;3.13;;;16.90;82.50;;;;;;5045048;28;20545;-68
2022/09/24 07:24:13;;;;;;;12.57;3.30;;;16.80;83.80;;;;;;5042615;28;20206;-68
2022/09/24 07:26:40;;;;;;;7.60;2.83;;;16.70;84.30;;;;;;5047405;28;20187;-68
2022/09/24 07:29:07;;;;;;;11.70;3.30;;;16.70;85.00;;;;;;5048407;28;20189;-69
2022/09/24 07:31:35;;;;;;;6.43;3.53;;;16.70;85.20;;;;;;5053606;28;20184;-68
2022/09/24 07:34:02;;;;;;;10.33;3.33;;;16.60;85.60;;;;;;5052476;28;20248;-69
2022/09/24 07:36:30;;;;;;;9.37;3.47;;;16.80;86.10;;;;;;5042251;28;20185;-69
2022/09/24 07:39:00;;;;;;;8.97;3.00;;;16.70;85.80;;;;;;5045820;28;20633;-69
2022/09/24 07:41:27;;;;;;;12.57;2.90;;;16.70;86.30;;;;;;5053030;28;20238;-68
2022/09/24 07:43:56;;;;;;;7.37;2.97;;;16.70;86.20;;;;;;5045378;28;20226;-68
2022/09/24 07:46:24;;;;;;;9.90;3.00;;;16.70;86.20;;;;;;5049113;28;20277;-68
2022/09/24 07:48:55;;;;;;;5.70;3.13;;;16.60;85.90;;;;;;5042420;28;20698;-68
2022/09/24 07:51:24;;;;;;;11.17;3.87;;;16.60;85.90;;;;;;5052101;28;20574;-69
2022/09/24 07:53:52;;;;;;;11.47;4.00;;;16.60;86.20;;;;;;5051750;28;20631;-68
2022/09/24 07:56:20;;;;;;;12.57;3.97;;;16.40;86.10;;;;;;5051983;28;20208;-69
2022/09/24 07:58:51;;;;;;;11.50;4.00;;;16.40;87.00;;;;;;5036163;28;20197;-68
2022/09/24 08:01:19;;;;;;;9.97;4.17;;;16.30;87.00;;;;;;5042425;28;20269;-68
2022/09/24 08:03:47;;;;;;;10.13;4.17;;;16.30;87.70;;;;;;5051325;28;20638;-69
2022/09/24 08:06:14;;;;;;;9.83;3.93;;;16.30;88.30;;;;;;5042904;28;20583;-68
2022/09/24 08:08:45;;;;;;;10.07;4.33;;;16.30;88.40;;;;;;5057950;28;20264;-68
2022/09/24 08:11:13;;;;;;;12.20;5.80;;;16.30;88.20;;;;;;5051884;28;20539;-69
2022/09/24 08:13:40;;;;;;;12.57;5.93;;;16.20;87.90;;;;;;5052516;28;20187;-71
2022/09/24 08:16:08;;;;;;;15.43;6.10;;;16.10;87.70;;;;;;5052629;28;20176;-71
2022/09/24 08:18:35;;;;;;;16.40;6.53;;;16.10;87.60;;;;;;5049350;28;20182;-68
2022/09/24 08:21:10;;;;;;;9.33;5.07;;;16.10;87.40;;;;;;5051681;28;20180;-69
2022/09/24 08:23:39;;;;;;;10.70;4.67;;;16.00;87.50;;;;;;5052117;28;20191;-68
2022/09/24 08:26:07;;;;;;;15.23;4.77;;;16.00;87.70;;;;;;5052324;28;20185;-69
2022/09/24 08:28:35;;;;;;;10.20;4.73;;;16.10;87.90;;;;;;5052293;28;20209;-70
2022/09/24 08:31:06;;;;;;;8.50;4.37;;;16.10;88.00;;;;;;5052368;28;20181;-70
2022/09/24 08:33:34;;;;;;;16.50;4.47;;;16.10;88.10;;;;;;5043809;28;20189;-68
2022/09/24 08:36:03;;;;;;;12.97;4.23;;;16.00;88.00;;;;;;5049976;28;20178;-69
2022/09/24 08:38:31;;;;;;;10.03;5.13;;;16.00;87.60;;;;;;5052168;28;20181;-70
2022/09/24 08:41:05;;;;;;;12.43;5.93;;;15.90;88.00;;;;;;5046167;28;20242;-69
2022/09/24 08:43:50;;;;;;;14.13;5.93;;;16.00;88.30;;;;;;5051712;28;20220;-69
2022/09/24 08:49:23;;;;;;;12.07;4.80;;;15.90;88.30;;;;;;5044419;28;20226;-69
2022/09/24 08:52:00;;;;;;;10.03;4.90;;;16.00;88.20;;;;;;5044034;28;20185;-70
2022/09/24 08:54:30;;;;;;;15.97;5.97;;;16.00;87.80;;;;;;5052117;28;20178;-69
2022/09/24 08:56:59;;;;;;;14.33;4.80;;;15.80;87.70;;;;;;5052328;28;20269;-69
2022/09/24 08:59:36;;;;;;;13.80;4.27;;;15.80;87.60;;;;;;5051908;28;20175;-70
2022/09/24 09:02:21;;;;;;;10.87;5.23;;;15.80;87.50;;;;;;5052086;28;20201;-70
2022/09/24 09:05:09;;;;;;;11.50;4.60;;;15.90;87.60;;;;;;5038602;28;20263;-69
2022/09/24 09:08:09;;;;;;;13.10;4.70;;;15.80;87.40;;;;;;5035826;28;20230;-70
2022/09/24 09:10:41;;;;;;;17.33;5.03;;;15.80;87.40;;;;;;5039228;28;20184;-70
2022/09/24 09:13:27;;;;;;;14.23;4.63;;;15.80;87.60;;;;;;5051973;28;20287;-70
2022/09/24 09:16:21;;;;;;;9.93;4.50;;;15.80;87.10;;;;;;5052245;28;20188;-69
2022/09/24 09:18:51;;;;;;;9.93;4.40;;;15.70;87.20;;;;;;5051849;28;20177;-70
2022/09/24 09:21:34;;;;;;;9.87;4.60;;;15.70;87.40;;;;;;5052256;28;20228;-69
2022/09/24 09:24:02;;;;;;;11.93;5.30;;;15.70;87.30;;;;;;5052333;28;20184;-69
2022/09/24 09:26:30;;;;;;;12.27;5.57;;;15.70;87.30;;;;;;5039191;28;20172;-68
2022/09/24 09:29:01;;;;;;;9.20;5.27;;;15.60;87.40;;;;;;5054102;28;20212;-68
2022/09/24 09:31:43;;;;;;;12.83;6.50;;;15.50;87.30;;;;;;5054577;28;20233;-68
2022/09/24 09:34:44;;;;;;;12.03;6.07;;;15.60;87.40;;;;;;5055929;28;20246;-69
2022/09/24 09:37:24;;;;;;;10.57;5.83;;;15.50;87.00;;;;;;5042104;28;20314;-69
2022/09/24 09:40:09;;;;;;;11.23;5.17;;;15.50;87.40;;;;;;5055581;28;20536;-69
2022/09/24 09:42:41;;;;;;;11.37;6.83;;;15.50;87.40;;;;;;5053848;28;20228;-69
2022/09/24 09:45:17;;;;;;;13.33;5.80;;;15.50;87.50;;;;;;5053104;28;20659;-69
2022/09/24 09:47:53;;;;;;;18.50;8.53;;;15.50;87.30;;;;;;5055562;28;20630;-69
2022/09/24 09:50:35;;;;;;;12.20;6.43;;;15.40;87.50;;;;;;5055481;28;20854;-69
2022/09/24 09:53:04;;;;;;;11.10;5.67;;;15.40;87.60;;;;;;5055151;28;20180;-69
2022/09/24 09:55:36;;;;;;;16.77;7.40;;;15.30;87.60;;;;;;5055499;28;20663;-69
2022/09/24 09:58:32;;;;;;;13.03;6.27;;;15.30;87.70;;;;;;5055076;28;20208;-69
2022/09/24 10:01:18;;;;;;;11.87;5.33;;;15.20;87.60;;;;;;5037667;28;20220;-69
2022/09/24 10:03:46;;;;;;;11.03;6.03;;;15.20;87.50;;;;;;5055157;28;20253;-70
2022/09/24 10:06:22;;;;;;;11.40;6.47;;;15.20;87.70;;;;;;5055285;28;20206;-70
2022/09/24 10:08:50;;;;;;;12.47;5.57;;;15.20;87.70;;;;;;5053879;28;20203;-69
2022/09/24 10:11:18;;;;;;;13.20;6.53;;;15.20;87.60;;;;;;5055277;28;20176;-70
2022/09/24 10:13:46;;;;;;;15.57;7.10;;;15.20;88.00;;;;;;5054752;28;20180;-70
2022/09/24 10:16:17;;;;;;;16.90;8.77;;;15.20;87.80;;;;;;5046843;28;20226;-69
2022/09/24 10:18:48;;;;;;;20.03;8.17;;;15.10;87.90;;;;;;5051714;28;20253;-69
2022/09/24 10:21:36;;;;;;;14.80;8.57;;;15.00;87.80;;;;;;5054823;28;20728;-70
2022/09/24 10:24:08;;;;;;;15.50;8.37;;;15.00;88.00;;;;;;5045480;28;20654;-69
2022/09/24 10:26:40;;;;;;;14.23;7.40;;;15.00;88.10;;;;;;5054687;28;20172;-70
2022/09/24 10:32:20;;;;;;;15.53;8.23;;;14.90;88.40;;;;;;5054911;28;20706;-69
2022/09/24 10:35:04;;;;;;;13.00;6.80;;;14.90;88.40;;;;;;5043774;28;20656;-70
2022/09/24 10:37:32;;;;;;;13.07;7.33;;;14.90;88.60;;;;;;5053384;28;20237;-69
2022/09/24 10:40:14;;;;;;;16.07;6.87;;;14.80;88.80;;;;;;5054484;28;20263;-68
2022/09/24 10:42:41;;;;;;;11.70;6.07;;;14.80;88.70;;;;;;5053909;28;20231;-69
2022/09/24 10:45:15;;;;;;;14.13;6.37;;;14.80;88.70;;;;;;5053100;28;20630;-69
2022/09/24 10:48:17;;;;;;;13.50;6.67;;;14.80;88.70;;;;;;5050002;28;20184;-69
2022/09/24 10:50:53;;;;;;;9.87;6.73;;;14.70;88.90;;;;;;5041279;28;20595;-70
2022/09/24 10:53:37;;;;;;;16.10;7.93;;;14.70;89.00;;;;;;5054640;28;20575;-69
2022/09/24 10:56:23;;;;;;;14.37;8.13;;;14.60;88.90;;;;;;5046637;28;20638;-70
2022/09/24 10:59:11;;;;;;;16.20;7.07;;;14.60;89.30;;;;;;5040905;28;20167;-70
2022/09/24 11:01:44;;;;;;;16.80;7.80;;;14.60;89.30;;;;;;5052878;28;20286;-70
2022/09/24 11:04:20;;;;;;;22.17;9.73;;;14.60;89.40;;;;;;5053407;28;20202;-70
2022/09/24 11:07:17;;;;;;;19.30;10.53;;;14.70;89.50;;;;;;5053148;28;20168;-70
2022/09/24 11:09:49;;;;;;;24.13;10.67;;;14.70;89.50;;;;;;5052954;28;20184;-70
2022/09/24 11:12:52;;;;;;;18.83;10.03;;;14.70;89.60;;;;;;5053814;28;20589;-70
2022/09/24 11:15:40;;;;;;;18.87;11.03;;;14.70;89.60;;;;;;5052787;28;20192;-70
2022/09/24 11:18:39;;;;;;;19.17;10.00;;;14.80;89.50;;;;;;5053079;28;20700;-70
2022/09/24 11:21:30;;;;;;;15.27;9.20;;;14.60;89.40;;;;;;5042411;28;20692;-71
2022/09/24 11:24:26;;;;;;;15.37;9.60;;;14.50;89.40;;;;;;5047291;28;20199;-70
2022/09/24 11:27:12;;;;;;;18.63;9.47;;;14.50;89.70;;;;;;5050098;28;20654;-70
2022/09/24 11:29:42;;;;;;;15.00;8.77;;;14.40;89.80;;;;;;5052454;28;20207;-70
2022/09/24 11:32:22;;;;;;;17.70;9.13;;;14.40;90.00;;;;;;5049748;28;20189;-69
2022/09/24 11:34:53;;;;;;;13.80;8.30;;;14.40;90.00;;;;;;5053309;28;20638;-73
2022/09/24 11:37:30;;;;;;;15.33;8.50;;;14.30;89.90;;;;;;5050289;28;20180;-70
2022/09/24 11:40:46;;;;;;;18.27;8.73;;;14.30;89.90;;;;;;5042083;28;20187;-69
2022/09/24 11:43:44;;;;;;;16.30;7.90;;;14.30;90.10;;;;;;5038926;28;20220;-70
2022/09/24 11:46:26;;;;;;;17.73;8.37;;;14.20;89.90;;;;;;5050217;28;20711;-70
2022/09/24 11:49:11;;;;;;;13.33;8.50;;;14.30;90.20;;;;;;5036797;28;20191;-70
2022/09/24 11:52:00;;;;;;;13.37;9.40;;;14.20;90.00;;;;;;5038563;28;20171;-69
2022/09/24 11:54:46;;;;;;;15.33;8.80;;;14.20;90.10;;;;;;5035252;28;20683;-71
2022/09/24 11:57:27;;;;;;;12.90;8.23;;;14.10;90.00;;;;;;5042206;28;20205;-69
2022/09/24 12:00:06;;;;;;;17.23;8.50;;;14.00;90.00;;;;;;5048965;28;20591;-69
2022/09/24 12:03:05;;;;;;;13.83;8.20;;;14.00;90.30;;;;;;5045499;28;20758;-70
2022/09/24 12:05:48;;;;;;;14.77;8.60;;;14.00;90.00;;;;;;5052952;28;20221;-70
2022/09/24 12:08:28;;;;;;;15.40;9.07;;;14.00;90.20;;;;;;5043786;28;20180;-69
2022/09/24 12:11:07;;;;;;;14.83;9.30;;;13.90;90.10;;;;;;5051941;28;20187;-70
2022/09/24 12:13:38;;;;;;;15.97;8.50;;;13.80;90.30;;;;;;5051317;28;20542;-70
2022/09/24 12:16:26;;;;;;;12.50;8.27;;;13.90;90.50;;;;;;5049921;28;20175;-70
2022/09/24 12:19:30;;;;;;;12.17;8.13;;;13.90;90.40;;;;;;5039410;28;20192;-70
2022/09/24 12:21:58;;;;;;;14.53;7.93;;;13.90;90.50;;;;;;5050160;28;20291;-69
2022/09/24 12:24:28;;;;;;;11.53;8.20;;;13.90;90.50;;;;;;5052722;28;20679;-69
2022/09/24 12:26:59;;;;;;;12.43;8.00;;;14.00;90.60;;;;;;5048575;28;20322;-70
2022/09/24 12:35:22;;;;;;;14.93;8.33;;;14.00;90.20;;;;;;5046211;28;20267;-69
2022/09/24 12:37:57;;;;;;;15.03;8.53;;;14.00;90.20;;;;;;5039517;28;20246;-69
2022/09/24 12:40:36;;;;;;;12.47;7.83;;;14.10;90.40;;;;;;5052375;28;20210;-70
2022/09/24 12:43:20;;;;;;;15.17;8.10;;;14.20;90.40;;;;;;5052014;28;20740;-72
2022/09/24 12:45:52;;;;;;;13.17;8.10;;;14.20;90.20;;;;;;5052245;28;20176;-70
2022/09/24 12:48:25;;;;;;;13.63;7.37;;;14.20;90.10;;;;;;5051606;28;20718;-70
2022/09/24 12:51:04;;;;;;;13.83;8.00;;;14.10;90.00;;;;;;5044512;28;20171;-69
2022/09/24 12:53:37;;;;;;;10.53;7.57;;;14.20;90.10;;;;;;5052291;28;20556;-71
2022/09/24 12:56:06;;;;;;;10.73;7.40;;;14.20;90.10;;;;;;5051820;28;20183;-69
2022/09/24 12:58:40;;;;;;;12.43;7.00;;;14.10;89.70;;;;;;5050310;28;20187;-69
2022/09/24 13:01:25;;;;;;;12.43;7.63;;;14.20;90.00;;;;;;5051918;28;20221;-71
2022/09/24 13:04:04;;;;;;;13.30;8.10;;;14.10;90.00;;;;;;5041325;28;20183;-70
2022/09/24 13:06:37;;;;;;;11.63;8.07;;;14.10;90.00;;;;;;5039910;28;20188;-71
2022/09/24 13:09:39;;;;;;;11.23;7.33;;;14.10;90.00;;;;;;5050456;28;20639;-69
2022/09/24 13:12:41;;;;;;;15.80;8.50;;;14.00;90.10;;;;;;5050327;28;20191;-70
2022/09/24 13:15:27;;;;;;;14.57;8.10;;;14.00;90.20;;;;;;5054775;28;20274;-70
2022/09/24 13:18:10;;;;;;;9.97;7.73;;;14.00;90.30;;;;;;5056393;28;20276;-70
2022/09/24 13:20:42;;;;;;;12.73;8.33;;;14.10;90.40;;;;;;5055945;28;20178;-69
2022/09/24 13:23:35;;;;;;;12.27;8.33;;;14.10;90.20;;;;;;5048901;28;20224;-69
2022/09/24 13:26:08;;;;;;;15.43;8.40;;;14.10;90.20;;;;;;5040552;28;20194;-70
2022/09/24 13:28:57;;;;;;;12.20;8.40;;;14.10;90.30;;;;;;5051528;28;20180;-70
2022/09/24 13:31:27;;;;;;;12.97;8.33;;;14.00;90.30;;;;;;5055944;28;20203;-70
2022/09/24 13:34:22;;;;;;;12.70;8.70;;;14.00;90.40;;;;;;5056176;28;20183;-71
2022/09/24 13:37:25;;;;;;;10.90;8.63;;;14.10;90.40;;;;;;5055399;28;20187;-71